Time;durP1;ratioP1;P1;durP2;ratioP2;P2;SDS_P1;SDS_P2;PMS_P1;PMS_P2;Temp;Humidity;BMP_temperature;BMP_pressure;BME280_temperature;BME280_humidity;BME280_pressure;Samples;Min_cycle;Max_cycle;Signal;HPM_P1;HPM_P2
2023/08/21 00:01:42;;;;;;;10.77;8.52;;;23.80;99.90;;;;;;5015393;28;20174;-32
2023/08/21 00:04:07;;;;;;;10.23;8.88;;;23.90;99.90;;;;;;4987964;28;20183;-30
2023/08/21 00:06:33;;;;;;;9.23;8.32;;;23.90;99.90;;;;;;5017420;28;20217;-32
2023/08/21 00:09:01;;;;;;;10.20;9.20;;;23.90;99.90;;;;;;4993779;28;20199;-32
2023/08/21 00:11:27;;;;;;;10.18;8.27;;;23.90;99.90;;;;;;5010619;28;20210;-31
2023/08/21 00:13:53;;;;;;;9.32;8.43;;;23.80;99.90;;;;;;5012511;28;20178;-31
2023/08/21 00:16:19;;;;;;;9.73;8.80;;;23.80;99.90;;;;;;4985245;28;20215;-31
2023/08/21 00:18:45;;;;;;;10.38;8.50;;;23.70;99.90;;;;;;4993440;28;20210;-30
2023/08/21 00:21:11;;;;;;;9.82;7.80;;;23.70;99.90;;;;;;4993283;28;20191;-31
2023/08/21 00:23:36;;;;;;;9.60;8.65;;;23.70;99.90;;;;;;5001787;28;20323;-31
2023/08/21 00:26:02;;;;;;;9.60;8.70;;;23.60;99.90;;;;;;4984242;28;20180;-31
2023/08/21 00:28:32;;;;;;;9.73;8.52;;;23.60;99.90;;;;;;4993785;28;20306;-32
2023/08/21 00:31:06;;;;;;;10.57;8.85;;;23.60;99.90;;;;;;4983323;28;20285;-31
2023/08/21 00:33:32;;;;;;;10.18;8.70;;;23.60;99.90;;;;;;4993287;28;20187;-30
2023/08/21 00:35:58;;;;;;;9.40;8.50;;;23.60;99.90;;;;;;4997792;28;20175;-31
2023/08/21 00:38:24;;;;;;;8.90;8.10;;;23.50;99.90;;;;;;5009909;28;20198;-32
2023/08/21 00:40:50;;;;;;;9.65;8.73;;;23.50;99.90;;;;;;4992234;28;20187;-31
2023/08/21 00:43:16;;;;;;;9.85;8.85;;;23.50;99.90;;;;;;4977395;28;20234;-30
2023/08/21 00:45:44;;;;;;;9.70;8.68;;;23.50;99.90;;;;;;4994544;28;20201;-31
2023/08/21 00:48:12;;;;;;;10.27;9.27;;;23.40;99.90;;;;;;5003892;28;20206;-31
2023/08/21 00:50:41;;;;;;;9.25;8.35;;;23.40;99.90;;;;;;4996447;28;20214;-31
2023/08/21 00:53:07;;;;;;;10.70;9.65;;;23.40;99.90;;;;;;5006353;28;20214;-31
2023/08/21 00:55:34;;;;;;;10.02;8.98;;;23.40;99.90;;;;;;5008115;28;20175;-30
2023/08/21 00:58:02;;;;;;;10.13;9.13;;;23.40;99.90;;;;;;4995252;28;20193;-31
2023/08/21 01:00:29;;;;;;;12.35;8.98;;;23.30;99.90;;;;;;5014622;28;20193;-31
2023/08/21 01:02:55;;;;;;;11.02;8.82;;;23.30;99.90;;;;;;4999492;28;20190;-31
2023/08/21 01:05:22;;;;;;;10.65;9.32;;;23.30;99.90;;;;;;4996871;28;20189;-30
2023/08/21 01:08:10;;;;;;;9.18;8.25;;;23.30;99.90;;;;;;4996670;28;20254;-30
2023/08/21 01:10:45;;;;;;;9.20;8.20;;;23.30;99.90;;;;;;5006899;28;20276;-31
2023/08/21 01:13:28;;;;;;;13.10;9.10;;;23.20;99.90;;;;;;4997842;28;20276;-31
2023/08/21 01:15:57;;;;;;;12.23;8.15;;;23.20;99.90;;;;;;4996791;28;20179;-31
2023/08/21 01:18:24;;;;;;;9.45;8.45;;;23.10;99.90;;;;;;4980256;28;20297;-31
2023/08/21 01:20:51;;;;;;;8.88;7.90;;;23.10;99.90;;;;;;4981399;28;20190;-31
2023/08/21 01:23:38;;;;;;;9.40;8.23;;;23.10;99.90;;;;;;5015308;28;20214;-31
2023/08/21 01:26:04;;;;;;;11.15;8.60;;;23.10;99.90;;;;;;5009384;28;20215;-31
2023/08/21 01:28:32;;;;;;;9.60;8.70;;;23.00;99.90;;;;;;5015191;28;20234;-31
2023/08/21 01:31:28;;;;;;;10.00;7.22;;;22.90;99.90;;;;;;4987592;28;20215;-30
2023/08/21 01:33:57;;;;;;;8.88;8.05;;;22.90;99.90;;;;;;4992232;28;20197;-30
2023/08/21 01:36:23;;;;;;;8.30;7.53;;;22.90;99.90;;;;;;5038657;28;20201;-30
2023/08/21 01:38:50;;;;;;;10.13;8.55;;;22.80;99.90;;;;;;5004629;28;20254;-31
2023/08/21 01:41:16;;;;;;;8.38;7.72;;;22.80;99.90;;;;;;4980148;28;20187;-31
2023/08/21 01:43:42;;;;;;;8.20;7.50;;;22.80;99.90;;;;;;5007100;28;20190;-31
2023/08/21 01:46:08;;;;;;;10.38;8.55;;;22.70;99.90;;;;;;5009371;28;20276;-33
2023/08/21 01:48:34;;;;;;;9.60;8.70;;;22.70;99.90;;;;;;5034277;28;20285;-32
2023/08/21 01:51:03;;;;;;;9.38;8.02;;;22.60;99.90;;;;;;4996284;28;20214;-31
2023/08/21 01:53:29;;;;;;;9.00;8.20;;;22.60;99.90;;;;;;5009332;28;20211;-31
2023/08/21 01:55:54;;;;;;;8.95;8.07;;;22.60;99.90;;;;;;5014073;28;20191;-30
2023/08/21 01:58:20;;;;;;;11.00;8.05;;;22.60;99.90;;;;;;4997121;28;20213;-30
2023/08/21 02:00:47;;;;;;;8.77;7.85;;;22.50;99.90;;;;;;4995717;28;20278;-31
2023/08/21 02:03:13;;;;;;;11.88;8.77;;;22.50;99.90;;;;;;4979745;28;20241;-31
2023/08/21 02:05:40;;;;;;;10.07;8.52;;;22.50;99.90;;;;;;5011817;28;20201;-31
2023/08/21 02:08:07;;;;;;;9.60;8.63;;;22.40;99.90;;;;;;5010669;28;20216;-30
2023/08/21 02:10:34;;;;;;;11.48;8.88;;;22.40;99.90;;;;;;5014676;28;20250;-30
2023/08/21 02:13:00;;;;;;;11.82;8.85;;;22.40;99.90;;;;;;4981375;28;20182;-30
2023/08/21 02:15:26;;;;;;;11.35;9.15;;;22.40;99.90;;;;;;5007576;28;20193;-30
2023/08/21 02:17:52;;;;;;;11.27;9.32;;;22.40;99.90;;;;;;4979102;28;20262;-31
2023/08/21 02:20:18;;;;;;;9.68;8.68;;;22.40;99.90;;;;;;4990444;28;20222;-30
2023/08/21 02:22:45;;;;;;;9.95;9.05;;;22.30;99.90;;;;;;4995849;28;20237;-30
2023/08/21 02:25:10;;;;;;;10.68;9.57;;;22.30;99.90;;;;;;4995419;28;20186;-30
2023/08/21 02:27:37;;;;;;;11.10;10.00;;;22.30;99.90;;;;;;5008962;28;20220;-30
2023/08/21 02:30:04;;;;;;;11.55;10.32;;;22.30;99.90;;;;;;5002407;28;20230;-31
2023/08/21 02:32:30;;;;;;;9.90;8.88;;;22.30;99.90;;;;;;4986917;28;20195;-30
2023/08/21 02:34:56;;;;;;;10.80;9.40;;;22.30;99.90;;;;;;5003361;28;20234;-30
2023/08/21 02:37:21;;;;;;;10.15;9.15;;;22.30;99.90;;;;;;4996813;28;20181;-31
2023/08/21 02:39:48;;;;;;;10.15;9.13;;;22.20;99.90;;;;;;5007929;28;20202;-30
2023/08/21 02:42:13;;;;;;;10.98;9.88;;;22.20;99.90;;;;;;5001109;28;20183;-30
2023/08/21 02:44:39;;;;;;;10.20;9.30;;;22.20;99.90;;;;;;4992534;28;20198;-31
2023/08/21 02:47:05;;;;;;;11.02;9.73;;;22.10;99.90;;;;;;5002182;28;20191;-31
2023/08/21 02:49:32;;;;;;;11.63;8.98;;;22.10;99.90;;;;;;5003036;28;20207;-31
2023/08/21 02:51:57;;;;;;;11.05;8.88;;;22.10;99.90;;;;;;4994911;28;20183;-29
2023/08/21 02:54:23;;;;;;;11.15;9.98;;;22.10;99.90;;;;;;4992865;28;20189;-31
2023/08/21 02:56:49;;;;;;;11.68;9.25;;;22.10;99.90;;;;;;5019124;28;20178;-30
2023/08/21 02:59:15;;;;;;;11.65;9.60;;;22.10;99.90;;;;;;4999429;28;20218;-30
2023/08/21 03:01:40;;;;;;;12.48;10.10;;;22.10;99.90;;;;;;4998126;28;20274;-30
2023/08/21 03:04:06;;;;;;;10.35;9.30;;;22.00;99.90;;;;;;4998023;28;20178;-30
2023/08/21 03:06:32;;;;;;;10.77;9.35;;;22.00;99.90;;;;;;5012974;28;20191;-30
2023/08/21 03:08:58;;;;;;;11.60;10.45;;;22.00;99.90;;;;;;5011256;28;20203;-30
2023/08/21 03:11:24;;;;;;;12.48;9.70;;;22.00;99.90;;;;;;5006240;28;20213;-30
2023/08/21 03:13:51;;;;;;;10.05;9.00;;;22.00;99.90;;;;;;5013074;28;20190;-30
2023/08/21 03:16:17;;;;;;;11.52;10.32;;;22.00;99.90;;;;;;5017922;28;20187;-30
2023/08/21 03:19:00;;;;;;;10.75;9.70;;;22.00;99.90;;;;;;5010508;28;20227;-30
2023/08/21 03:21:28;;;;;;;11.15;9.75;;;22.00;99.90;;;;;;5001132;28;20190;-30
2023/08/21 03:23:59;;;;;;;11.80;9.15;;;21.90;99.90;;;;;;5000132;28;20178;-30
2023/08/21 03:26:25;;;;;;;10.60;9.57;;;21.80;99.90;;;;;;4984612;28;20178;-30
2023/08/21 03:28:53;;;;;;;10.80;8.88;;;21.80;99.90;;;;;;5002864;28;20237;-30
2023/08/21 03:31:19;;;;;;;10.20;9.20;;;21.80;99.90;;;;;;4994274;28;20218;-30
2023/08/21 03:33:46;;;;;;;10.70;9.60;;;21.80;99.90;;;;;;5012701;28;20179;-30
2023/08/21 03:36:13;;;;;;;10.25;8.60;;;21.80;99.90;;;;;;4977984;28;20179;-30
2023/08/21 03:38:40;;;;;;;11.40;9.45;;;21.80;99.90;;;;;;5007408;28;20209;-31
2023/08/21 03:41:07;;;;;;;9.80;8.88;;;21.80;99.90;;;;;;4988321;28;20182;-30
2023/08/21 03:43:34;;;;;;;10.32;9.27;;;21.70;99.90;;;;;;5004194;28;20182;-30
2023/08/21 03:46:00;;;;;;;10.07;9.07;;;21.70;99.90;;;;;;4996520;28;20261;-31
2023/08/21 03:48:26;;;;;;;10.85;9.25;;;21.70;99.90;;;;;;4998307;28;20200;-29
2023/08/21 03:50:51;;;;;;;9.35;8.43;;;21.60;99.90;;;;;;4994523;28;20238;-30
2023/08/21 03:53:18;;;;;;;11.40;10.23;;;21.60;99.90;;;;;;4997463;28;20210;-31
2023/08/21 03:55:44;;;;;;;9.98;8.65;;;21.60;99.90;;;;;;4999282;28;20209;-30
2023/08/21 03:58:10;;;;;;;10.32;9.38;;;21.60;99.90;;;;;;4993415;28;20683;-30
2023/08/21 04:00:36;;;;;;;10.05;9.07;;;21.50;99.90;;;;;;4987058;28;20189;-30
2023/08/21 04:03:02;;;;;;;9.95;9.00;;;21.50;99.90;;;;;;4986066;28;20222;-31
2023/08/21 04:05:28;;;;;;;9.63;8.63;;;21.50;99.90;;;;;;4987677;28;20186;-30
2023/08/21 04:07:54;;;;;;;10.98;8.88;;;21.40;99.90;;;;;;5009532;28;20274;-30
2023/08/21 04:10:20;;;;;;;10.93;9.10;;;21.30;99.90;;;;;;5004271;28;20203;-30
2023/08/21 04:12:45;;;;;;;10.52;9.20;;;21.20;99.90;;;;;;4995027;28;20179;-30
2023/08/21 04:15:11;;;;;;;10.05;8.52;;;21.20;99.90;;;;;;4993528;28;20183;-30
2023/08/21 04:17:37;;;;;;;10.07;9.18;;;21.20;99.90;;;;;;4993437;28;20183;-30
2023/08/21 04:20:03;;;;;;;9.70;8.80;;;21.20;99.90;;;;;;4994135;28;20211;-31
2023/08/21 04:22:29;;;;;;;11.95;9.02;;;21.10;99.90;;;;;;5008438;28;20236;-31
2023/08/21 04:24:55;;;;;;;11.48;9.07;;;21.00;99.90;;;;;;4995330;28;20195;-30
2023/08/21 04:27:21;;;;;;;10.55;9.10;;;21.00;99.90;;;;;;4996658;28;20186;-31
2023/08/21 04:29:46;;;;;;;10.68;9.68;;;21.00;99.90;;;;;;5003795;28;20301;-31
2023/08/21 04:32:12;;;;;;;9.90;8.88;;;21.10;99.90;;;;;;4995830;28;20179;-31
2023/08/21 04:34:40;;;;;;;10.57;9.13;;;21.00;99.90;;;;;;4999031;28;20184;-31
2023/08/21 04:37:06;;;;;;;13.25;10.00;;;21.10;99.90;;;;;;4983244;28;20191;-31
2023/08/21 04:39:32;;;;;;;10.43;9.13;;;21.10;99.90;;;;;;4998905;28;20195;-31
2023/08/21 04:41:58;;;;;;;11.20;10.05;;;21.10;99.90;;;;;;4990675;28;20637;-31
2023/08/21 04:44:24;;;;;;;11.15;9.98;;;21.10;99.90;;;;;;4994742;28;20183;-30
2023/08/21 04:46:50;;;;;;;13.65;10.00;;;21.10;99.90;;;;;;5008810;28;20209;-31
2023/08/21 04:49:16;;;;;;;13.85;10.05;;;21.10;99.90;;;;;;5006495;28;20201;-30
2023/08/21 04:51:42;;;;;;;10.07;9.23;;;21.10;99.90;;;;;;5032338;28;20202;-31
2023/08/21 04:54:08;;;;;;;11.23;10.02;;;21.20;99.90;;;;;;5003356;28;20178;-30
2023/08/21 04:56:34;;;;;;;11.68;9.77;;;21.30;99.90;;;;;;5019172;28;20179;-31
2023/08/21 04:59:02;;;;;;;11.15;9.93;;;21.40;99.90;;;;;;5016103;28;20292;-31
2023/08/21 05:01:29;;;;;;;11.38;10.27;;;21.40;99.90;;;;;;4983319;28;20274;-31
2023/08/21 05:03:57;;;;;;;11.35;9.32;;;21.40;99.90;;;;;;5018215;28;20783;-30
2023/08/21 05:06:23;;;;;;;11.15;10.05;;;21.50;99.90;;;;;;5019086;28;20190;-31
2023/08/21 05:08:50;;;;;;;11.70;10.60;;;21.50;99.90;;;;;;5002015;28;20388;-31
2023/08/21 05:11:16;;;;;;;11.93;10.45;;;21.50;99.90;;;;;;5011532;28;20213;-31
2023/08/21 05:13:42;;;;;;;11.23;10.13;;;21.50;99.90;;;;;;5002253;28;20310;-30
2023/08/21 05:16:11;;;;;;;11.10;10.10;;;21.50;99.90;;;;;;4999502;28;20234;-31
2023/08/21 05:18:38;;;;;;;10.90;9.88;;;21.60;99.90;;;;;;4983466;28;20293;-30
2023/08/21 05:21:04;;;;;;;10.82;9.80;;;21.60;99.90;;;;;;4999580;28;20362;-31
2023/08/21 05:23:30;;;;;;;10.55;9.63;;;21.70;99.90;;;;;;4986335;28;20197;-30
2023/08/21 05:26:01;;;;;;;12.80;9.98;;;21.70;99.90;;;;;;5000673;28;20183;-30
2023/08/21 05:28:27;;;;;;;10.57;9.32;;;21.70;99.90;;;;;;4990360;28;20213;-31
2023/08/21 05:30:53;;;;;;;11.77;10.23;;;21.70;99.90;;;;;;5007298;28;20219;-31
2023/08/21 05:33:20;;;;;;;11.25;10.07;;;21.80;99.90;;;;;;4983360;28;20189;-31
2023/08/21 05:35:49;;;;;;;12.75;10.40;;;21.80;99.90;;;;;;4983437;28;20191;-30
2023/08/21 05:38:14;;;;;;;10.45;9.52;;;21.90;99.90;;;;;;5005651;28;20205;-31
2023/08/21 05:40:41;;;;;;;12.75;9.98;;;21.90;99.90;;;;;;4983443;28;20183;-30
2023/08/21 05:43:08;;;;;;;11.52;10.35;;;22.00;99.90;;;;;;4984097;28;20187;-30
2023/08/21 05:45:35;;;;;;;10.55;9.48;;;22.00;99.90;;;;;;4993204;28;20175;-31
2023/08/21 05:48:00;;;;;;;11.45;10.35;;;22.00;99.90;;;;;;4995959;28;20242;-31
2023/08/21 05:50:26;;;;;;;11.13;10.15;;;22.00;99.90;;;;;;4996261;28;20206;-30
2023/08/21 05:52:54;;;;;;;12.18;10.82;;;22.10;99.90;;;;;;4997379;28;20175;-31
2023/08/21 05:55:21;;;;;;;12.27;11.05;;;22.10;99.90;;;;;;4995998;28;20179;-30
2023/08/21 05:57:47;;;;;;;12.27;10.45;;;22.20;99.90;;;;;;4997504;28;20243;-31
2023/08/21 06:00:15;;;;;;;11.45;10.30;;;22.20;99.90;;;;;;4992008;28;20182;-30
2023/08/21 06:02:44;;;;;;;12.73;10.32;;;22.30;99.90;;;;;;5015881;28;20645;-31
2023/08/21 06:05:17;;;;;;;11.30;10.30;;;22.30;99.90;;;;;;5015406;28;20178;-31
2023/08/21 06:07:46;;;;;;;12.68;10.63;;;22.40;99.90;;;;;;5014776;28;20190;-30
2023/08/21 06:10:12;;;;;;;12.73;10.25;;;22.40;99.90;;;;;;4995894;28;20262;-31
2023/08/21 06:12:41;;;;;;;11.02;9.98;;;22.60;99.90;;;;;;5003505;28;20174;-31
2023/08/21 06:15:11;;;;;;;11.85;10.30;;;22.70;99.90;;;;;;4998817;28;20175;-31
2023/08/21 06:17:38;;;;;;;12.02;9.98;;;22.80;99.90;;;;;;5007510;28;20175;-31
2023/08/21 06:20:08;;;;;;;11.60;10.30;;;22.80;99.90;;;;;;4988617;28;20219;-31
2023/08/21 06:22:37;;;;;;;11.13;10.07;;;22.90;99.90;;;;;;5000573;28;20183;-30
2023/08/21 06:25:04;;;;;;;10.65;9.57;;;23.00;99.90;;;;;;4995806;28;20238;-31
2023/08/21 06:27:30;;;;;;;10.88;9.68;;;23.00;99.90;;;;;;5001013;28;20226;-31
2023/08/21 06:29:56;;;;;;;10.90;9.63;;;23.00;99.90;;;;;;5007155;28;20310;-30
2023/08/21 06:32:22;;;;;;;10.40;9.35;;;23.10;99.90;;;;;;4997881;28;20182;-30
2023/08/21 06:34:48;;;;;;;11.73;9.63;;;23.20;99.90;;;;;;4998590;28;20253;-31
2023/08/21 06:37:14;;;;;;;10.32;9.13;;;23.30;99.90;;;;;;5012021;28;20179;-30
2023/08/21 06:39:40;;;;;;;10.50;9.50;;;23.40;99.90;;;;;;4989978;28;20199;-31
2023/08/21 06:42:06;;;;;;;10.75;9.10;;;23.50;99.90;;;;;;4996869;28;20186;-31
2023/08/21 06:44:40;;;;;;;10.70;9.32;;;23.60;99.90;;;;;;5005660;28;20642;-30
2023/08/21 06:47:06;;;;;;;11.00;9.85;;;23.70;99.90;;;;;;4986503;28;20213;-30
2023/08/21 06:49:32;;;;;;;11.10;8.88;;;23.80;99.90;;;;;;4989154;28;20685;-31
2023/08/21 06:51:59;;;;;;;10.38;9.25;;;23.90;99.90;;;;;;4986802;28;20207;-31
2023/08/21 06:54:24;;;;;;;11.48;10.07;;;24.10;99.90;;;;;;5002725;28;20180;-31
2023/08/21 06:56:50;;;;;;;10.23;9.00;;;24.10;99.90;;;;;;5010675;28;20191;-31
2023/08/21 06:59:16;;;;;;;9.60;8.60;;;24.10;99.90;;;;;;5000338;28;20190;-31
2023/08/21 07:01:42;;;;;;;11.00;9.35;;;24.20;99.90;;;;;;4998266;28;20652;-31
2023/08/21 07:04:07;;;;;;;11.65;8.98;;;24.30;99.90;;;;;;5013249;28;20186;-31
2023/08/21 07:06:33;;;;;;;9.25;8.45;;;24.40;99.90;;;;;;4996780;28;20191;-31
2023/08/21 07:08:59;;;;;;;9.60;8.70;;;24.60;99.90;;;;;;5014490;28;20209;-31
2023/08/21 07:11:25;;;;;;;10.23;9.00;;;24.60;99.90;;;;;;4997375;28;20231;-31
2023/08/21 07:13:51;;;;;;;10.23;9.32;;;24.70;99.90;;;;;;5000549;28;20192;-31
2023/08/21 07:16:17;;;;;;;9.45;8.55;;;24.70;99.90;;;;;;4994587;28;20186;-31
2023/08/21 07:18:42;;;;;;;10.10;9.18;;;24.80;99.90;;;;;;4978303;28;20215;-31
2023/08/21 07:21:08;;;;;;;10.65;9.50;;;24.90;99.90;;;;;;4995001;28;20277;-31
2023/08/21 07:23:34;;;;;;;10.00;9.07;;;25.10;99.90;;;;;;5013979;28;20269;-31
2023/08/21 07:26:01;;;;;;;9.75;8.75;;;25.30;99.90;;;;;;4996784;28;20234;-31
2023/08/21 07:28:26;;;;;;;10.10;9.10;;;25.40;99.90;;;;;;5018257;28;20210;-31
2023/08/21 07:30:56;;;;;;;12.05;9.57;;;25.50;99.90;;;;;;4997636;28;20218;-31
2023/08/21 07:33:22;;;;;;;10.18;9.10;;;25.60;99.90;;;;;;4990176;28;20183;-31
2023/08/21 07:35:57;;;;;;;11.95;8.98;;;25.60;99.90;;;;;;4997460;28;20179;-31
2023/08/21 07:38:23;;;;;;;9.88;8.88;;;25.70;99.90;;;;;;5009468;28;20270;-31
2023/08/21 07:40:48;;;;;;;9.32;8.43;;;25.80;99.90;;;;;;4982289;28;20273;-31
2023/08/21 07:43:14;;;;;;;9.52;8.15;;;25.90;99.90;;;;;;5000493;28;20213;-31
2023/08/21 07:45:40;;;;;;;10.32;8.25;;;26.00;99.90;;;;;;5004838;28;20209;-31
2023/08/21 07:48:06;;;;;;;8.80;8.00;;;26.10;99.90;;;;;;5000682;28;20214;-31
2023/08/21 07:50:32;;;;;;;9.15;8.20;;;26.20;99.90;;;;;;5000459;28;20211;-31
2023/08/21 07:52:57;;;;;;;9.65;8.85;;;26.30;99.90;;;;;;4977406;28;20195;-31
2023/08/21 07:55:23;;;;;;;11.20;8.70;;;26.40;99.90;;;;;;5003819;28;20170;-31
2023/08/21 07:57:49;;;;;;;8.88;7.93;;;26.50;99.90;;;;;;5011481;28;20634;-31
2023/08/21 08:00:19;;;;;;;8.68;7.78;;;26.70;99.90;;;;;;5013329;28;20221;-31
2023/08/21 08:02:45;;;;;;;9.82;8.38;;;26.80;99.90;;;;;;5012170;28;20209;-31
2023/08/21 08:05:11;;;;;;;9.27;8.38;;;26.80;99.90;;;;;;4996922;28;20230;-31
2023/08/21 08:07:37;;;;;;;9.27;7.85;;;26.90;99.90;;;;;;4996730;28;20201;-31
2023/08/21 08:10:03;;;;;;;11.63;8.52;;;27.00;99.90;;;;;;4995209;28;20214;-31
2023/08/21 08:12:28;;;;;;;8.60;7.82;;;27.20;99.90;;;;;;4993601;28;20213;-31
2023/08/21 08:14:55;;;;;;;9.05;7.30;;;27.10;99.90;;;;;;4996271;28;20179;-32
2023/08/21 08:17:20;;;;;;;8.93;7.53;;;27.20;99.90;;;;;;5012505;28;20175;-31
2023/08/21 08:19:46;;;;;;;8.25;7.35;;;27.30;99.90;;;;;;5013190;28;20204;-31
2023/08/21 08:22:12;;;;;;;8.13;7.10;;;27.50;99.90;;;;;;4998131;28;20194;-31
2023/08/21 08:24:38;;;;;;;7.55;6.63;;;27.60;99.90;;;;;;5005724;28;20198;-32
2023/08/21 08:27:03;;;;;;;9.13;7.85;;;27.80;99.90;;;;;;4985515;28;20206;-31
2023/08/21 08:29:30;;;;;;;8.80;7.90;;;27.90;99.90;;;;;;5000589;28;20256;-31
2023/08/21 08:31:55;;;;;;;9.50;7.72;;;27.90;99.90;;;;;;4997447;28;20203;-32
2023/08/21 08:34:21;;;;;;;8.43;7.65;;;28.00;99.90;;;;;;4993446;28;20187;-31
2023/08/21 08:36:47;;;;;;;8.82;8.02;;;28.20;99.90;;;;;;5017259;28;20183;-31
2023/08/21 08:39:13;;;;;;;10.25;8.07;;;28.20;99.90;;;;;;4994574;28;20290;-31
2023/08/21 08:41:48;;;;;;;8.50;7.60;;;28.30;99.90;;;;;;4999730;28;20175;-32
2023/08/21 08:44:17;;;;;;;8.98;7.97;;;28.40;99.90;;;;;;4996495;28;20177;-32
2023/08/21 08:46:43;;;;;;;8.38;7.68;;;28.60;99.90;;;;;;5012673;28;20235;-32
2023/08/21 08:49:09;;;;;;;8.45;7.72;;;28.70;99.90;;;;;;4979268;28;20230;-32
2023/08/21 08:51:37;;;;;;;8.95;8.02;;;28.80;99.90;;;;;;5002961;28;20250;-32
2023/08/21 08:54:03;;;;;;;7.72;6.85;;;28.90;99.90;;;;;;4996216;28;20262;-32
2023/08/21 08:56:29;;;;;;;9.07;7.53;;;29.10;99.90;;;;;;4996198;28;20332;-32
2023/08/21 08:58:55;;;;;;;8.20;7.40;;;29.40;99.90;;;;;;4989204;28;20777;-32
2023/08/21 09:01:21;;;;;;;7.65;6.97;;;29.60;99.90;;;;;;5012794;28;20411;-31
2023/08/21 09:03:49;;;;;;;8.10;7.30;;;29.70;99.90;;;;;;4998423;28;20175;-31
2023/08/21 09:06:15;;;;;;;9.38;7.38;;;29.80;99.90;;;;;;5011067;28;20189;-31
2023/08/21 09:08:56;;;;;;;7.68;6.97;;;29.90;99.90;;;;;;5030133;28;20202;-31
2023/08/21 09:11:23;;;;;;;8.10;7.30;;;29.90;99.90;;;;;;4995430;28;20217;-32
2023/08/21 09:13:50;;;;;;;9.80;7.50;;;30.00;99.90;;;;;;4991417;28;20185;-32
2023/08/21 09:16:18;;;;;;;8.27;7.47;;;30.00;99.90;;;;;;5002489;28;20183;-32
2023/08/21 09:18:57;;;;;;;7.70;7.03;;;30.00;99.90;;;;;;4982337;28;20238;-31
2023/08/21 09:21:24;;;;;;;7.90;7.10;;;30.20;99.90;;;;;;4993913;28;20195;-31
2023/08/21 09:23:59;;;;;;;7.97;7.18;;;30.40;99.90;;;;;;5006608;28;20187;-32
2023/08/21 09:26:26;;;;;;;7.93;7.22;;;30.50;99.90;;;;;;5003773;28;20223;-31
2023/08/21 09:28:53;;;;;;;8.05;7.20;;;30.70;99.90;;;;;;5007044;28;20206;-31
2023/08/21 09:31:23;;;;;;;8.02;7.32;;;30.70;99.90;;;;;;5004330;28;20221;-31
2023/08/21 09:34:15;;;;;;;8.10;7.30;;;30.80;99.90;;;;;;4996388;28;20186;-32
2023/08/21 09:36:41;;;;;;;7.50;6.82;;;30.90;99.90;;;;;;5004431;28;20219;-32
2023/08/21 09:39:17;;;;;;;8.40;7.05;;;31.00;99.90;;;;;;4999247;28;20239;-32
2023/08/21 09:41:55;;;;;;;7.80;6.68;;;31.10;99.90;;;;;;5005647;28;20194;-32
2023/08/21 09:44:21;;;;;;;7.80;7.10;;;31.20;99.90;;;;;;5001774;28;20205;-32
2023/08/21 09:46:50;;;;;;;7.93;7.07;;;31.40;99.90;;;;;;4992637;28;20179;-31
2023/08/21 09:49:18;;;;;;;7.50;6.80;;;31.50;99.90;;;;;;5013702;28;20358;-31
2023/08/21 09:51:44;;;;;;;7.80;6.80;;;31.60;99.90;;;;;;4979857;28;20214;-32
2023/08/21 09:54:11;;;;;;;7.65;6.15;;;31.70;99.90;;;;;;4992390;28;20189;-32
2023/08/21 09:56:37;;;;;;;6.78;6.18;;;31.80;99.90;;;;;;4979916;28;20194;-31
2023/08/21 09:59:04;;;;;;;8.05;6.53;;;31.80;99.90;;;;;;5009216;28;20214;-31
2023/08/21 10:01:33;;;;;;;7.53;6.22;;;31.90;99.90;;;;;;4996138;28;20183;-32
2023/08/21 10:04:02;;;;;;;8.32;6.20;;;32.00;99.90;;;;;;5004142;28;20186;-32
2023/08/21 10:06:29;;;;;;;6.72;5.95;;;32.00;99.90;;;;;;5023349;28;20182;-32
2023/08/21 10:08:57;;;;;;;8.02;6.57;;;32.00;99.90;;;;;;5012382;28;20202;-32
2023/08/21 10:11:23;;;;;;;7.35;6.65;;;32.00;99.90;;;;;;5004873;28;20242;-32
2023/08/21 10:13:52;;;;;;;8.52;6.65;;;32.10;99.90;;;;;;4984144;28;20183;-31
2023/08/21 10:16:21;;;;;;;8.70;6.30;;;32.00;99.90;;;;;;5003611;28;20218;-31
2023/08/21 10:18:47;;;;;;;7.07;6.32;;;32.20;99.90;;;;;;4979745;28;20211;-32
2023/08/21 10:21:22;;;;;;;6.65;5.88;;;32.40;99.90;;;;;;4996185;28;20210;-32
2023/08/21 10:23:50;;;;;;;9.85;6.15;;;32.30;99.90;;;;;;5010063;28;20179;-32
2023/08/21 10:26:20;;;;;;;7.68;6.45;;;32.30;99.90;;;;;;5004226;28;20185;-32
2023/08/21 10:28:54;;;;;;;6.28;5.78;;;32.30;99.90;;;;;;5006166;28;20213;-32
2023/08/21 10:31:39;;;;;;;7.82;6.22;;;32.50;99.90;;;;;;5004873;28;20198;-32
2023/08/21 10:34:14;;;;;;;7.68;6.97;;;32.50;99.90;;;;;;4999177;28;20327;-32
2023/08/21 10:36:42;;;;;;;8.32;6.97;;;32.20;99.90;;;;;;5002810;28;20194;-32
2023/08/21 10:39:16;;;;;;;8.63;6.30;;;32.30;99.90;;;;;;4987194;28;20233;-32
2023/08/21 10:42:03;;;;;;;8.02;6.47;;;32.60;99.90;;;;;;5007949;28;20291;-32
2023/08/21 10:44:45;;;;;;;9.02;6.70;;;32.80;99.90;;;;;;4996742;28;20186;-32
2023/08/21 10:47:23;;;;;;;7.45;6.75;;;32.70;99.90;;;;;;5003095;28;20374;-32
2023/08/21 10:50:00;;;;;;;8.60;6.10;;;32.80;99.90;;;;;;5005163;28;20704;-32
2023/08/21 10:52:42;;;;;;;7.32;6.63;;;32.90;99.90;;;;;;4997315;28;20174;-32
2023/08/21 10:55:09;;;;;;;7.35;6.57;;;32.80;99.90;;;;;;5004774;28;20183;-32
2023/08/21 10:57:35;;;;;;;7.13;6.30;;;32.30;99.90;;;;;;4993554;28;20172;-32
2023/08/21 11:00:05;;;;;;;8.95;6.40;;;32.20;99.90;;;;;;5023038;28;20202;-32
2023/08/21 11:02:32;;;;;;;7.03;6.13;;;32.30;99.90;;;;;;5000612;28;21064;-32
2023/08/21 11:04:59;;;;;;;9.27;5.95;;;32.40;99.90;;;;;;5033092;28;20182;-32
2023/08/21 11:07:27;;;;;;;8.13;7.03;;;32.40;99.90;;;;;;4996471;28;20195;-32
2023/08/21 11:09:52;;;;;;;7.80;7.00;;;32.70;99.90;;;;;;4997875;28;20217;-32
2023/08/21 11:12:21;;;;;;;7.72;6.32;;;32.90;99.90;;;;;;4997553;28;20187;-32
2023/08/21 11:14:47;;;;;;;7.97;7.22;;;33.20;99.90;;;;;;4993928;28;20171;-32
2023/08/21 11:17:13;;;;;;;7.35;6.70;;;33.50;99.90;;;;;;4994024;28;20648;-32
2023/08/21 11:19:42;;;;;;;8.55;6.72;;;33.70;99.90;;;;;;4978138;28;20222;-32
2023/08/21 11:22:09;;;;;;;8.38;7.38;;;34.00;99.90;;;;;;4978158;28;20179;-33
2023/08/21 11:24:47;;;;;;;9.38;6.95;;;34.10;99.90;;;;;;4994205;28;20179;-33
2023/08/21 11:27:15;;;;;;;8.45;6.85;;;34.30;99.90;;;;;;5010458;28;20179;-33
2023/08/21 11:29:46;;;;;;;8.02;7.20;;;34.50;99.90;;;;;;4990639;28;20234;-33
2023/08/21 11:32:23;;;;;;;7.20;6.50;;;34.70;99.90;;;;;;4994402;28;20255;-33
2023/08/21 11:34:54;;;;;;;7.85;6.88;;;34.90;99.90;;;;;;5004205;28;20206;-33
2023/08/21 11:37:26;;;;;;;6.97;6.30;;;34.90;99.90;;;;;;5012352;28;20678;-33
2023/08/21 11:39:54;;;;;;;7.05;6.35;;;34.80;99.90;;;;;;5008727;28;20199;-33
2023/08/21 11:42:30;;;;;;;7.15;6.50;;;34.80;99.90;;;;;;4993941;28;20179;-33
2023/08/21 11:44:56;;;;;;;8.07;6.63;;;34.70;99.90;;;;;;4995929;28;20205;-33
2023/08/21 11:47:23;;;;;;;7.25;6.55;;;34.40;99.90;;;;;;4996840;28;20183;-33
2023/08/21 11:49:50;;;;;;;7.97;6.50;;;34.40;99.90;;;;;;4997141;28;20199;-33
2023/08/21 11:52:21;;;;;;;9.48;6.55;;;34.50;99.90;;;;;;5013275;28;20214;-32
2023/08/21 11:54:52;;;;;;;7.85;7.03;;;34.50;99.90;;;;;;5008089;28;20191;-33
2023/08/21 11:57:18;;;;;;;7.88;7.18;;;34.60;99.90;;;;;;4977410;28;20180;-33
2023/08/21 11:59:52;;;;;;;7.03;6.43;;;34.50;99.90;;;;;;5003058;28;20195;-33
2023/08/21 12:02:22;;;;;;;7.20;6.53;;;34.50;99.90;;;;;;4997081;28;20261;-33
2023/08/21 12:05:03;;;;;;;7.72;7.03;;;34.60;99.90;;;;;;5013339;28;20179;-33
2023/08/21 12:07:29;;;;;;;9.18;6.68;;;34.80;99.90;;;;;;4983347;28;20191;-33
2023/08/21 12:09:55;;;;;;;11.27;7.22;;;34.80;99.90;;;;;;5011263;28;20195;-33
2023/08/21 12:12:21;;;;;;;9.93;6.32;;;34.90;99.90;;;;;;4977480;28;20270;-33
2023/08/21 12:14:48;;;;;;;10.43;6.35;;;34.50;99.90;;;;;;4993240;28;20188;-33
2023/08/21 12:17:13;;;;;;;6.72;5.97;;;34.80;99.90;;;;;;5011063;28;20176;-33
2023/08/21 12:19:39;;;;;;;7.00;6.40;;;35.00;99.90;;;;;;5011375;28;20211;-33
2023/08/21 12:22:05;;;;;;;7.07;6.25;;;35.30;99.90;;;;;;5005226;28;20174;-33
2023/08/21 12:24:31;;;;;;;8.18;6.32;;;35.20;99.90;;;;;;5010395;28;20209;-33
2023/08/21 12:26:58;;;;;;;6.88;6.20;;;34.70;99.90;;;;;;4987009;28;20668;-33
2023/08/21 12:29:24;;;;;;;6.80;5.97;;;34.90;99.90;;;;;;5036941;28;20240;-33
2023/08/21 12:31:50;;;;;;;6.82;6.00;;;35.20;99.90;;;;;;5030547;28;20233;-32
2023/08/21 12:34:15;;;;;;;6.85;6.15;;;35.50;99.90;;;;;;4996485;28;20197;-32
2023/08/21 12:36:41;;;;;;;9.23;6.13;;;35.80;99.90;;;;;;4995923;28;20175;-32
2023/08/21 12:39:08;;;;;;;6.70;6.03;;;36.10;99.90;;;;;;5009666;28;20199;-32
2023/08/21 12:41:34;;;;;;;6.50;5.90;;;36.20;99.90;;;;;;4993443;28;20258;-32
2023/08/21 12:44:02;;;;;;;6.05;5.40;;;36.20;99.90;;;;;;4999207;28;20186;-32